Decoded Metar for LFBI (POITIERS in FRANCE) (IATA:PIS) | Meteo·Mobile Aviation Weather
aviador You're here:

LFBI Decoded Metar

POITIERS in FRANCE
Report Time2018-10-18 15:00:00
UTC Time2018-10-18 15:30:47
Flight Rules vfr VFR
Wind030° at 07 kt
W.Decomp.*RWY 03: 7.0 kt HW 0.1 kt RCW
W.Rank030° ranks 9
Current wind is above 030° avg. (6.5)
Visibility9999 m
Phenomena:N/A
Clouds:N/A
Expected CloudBase > 3,600 ft AGL from Temp-Dew spread
CeilingNone
Temp21°C (ISA +7)
Dew Point12°C (57% RH)
AAT19.1°C
QNH1017 hPa
Density Alt1,240 ft
Elevation394 ft
Report Wrong Elevation
Raw Report
LFBI 181500Z AUTO 03007KT 360V120 CAVOK 21/12 Q1017 NOSIG=

Extra information for LFBI:More info

Metar Taf Metar & Taf Last 4 Metars F.Rules Stats Wind Profile Meteogram Temp Stats Airport Information Weather charts Add Link Nearby VenuesMetar ALERT Operation Metar Decoded Social comments